Time;durP1;ratioP1;P1;durP2;ratioP2;P2;SDS_P1;SDS_P2;PMS_P1;PMS_P2;Temp;Humidity;BMP_temperature;BMP_pressure;BME280_temperature;BME280_humidity;BME280_pressure;Samples;Min_cycle;Max_cycle;Signal;HPM_P1;HPM_P2
2024/01/07 00:01:55;;;;;;;0.65;0.65;;;1.90;99.90;;;;;;4973306;28;20490;-68
2024/01/07 00:04:21;;;;;;;0.10;0.10;;;2.00;99.90;;;;;;4968601;28;20074;-67
2024/01/07 00:06:46;;;;;;;0.10;0.10;;;1.90;99.90;;;;;;4968832;28;20043;-68
2024/01/07 00:09:15;;;;;;;0.85;0.85;;;2.00;99.90;;;;;;4957976;28;20086;-68
2024/01/07 00:11:40;;;;;;;0.20;0.20;;;2.00;99.90;;;;;;4968099;28;20047;-68
2024/01/07 00:14:06;;;;;;;0.10;0.10;;;2.00;99.90;;;;;;4970016;28;20047;-68
2024/01/07 00:16:32;;;;;;;0.45;0.45;;;2.00;99.90;;;;;;4963415;28;20049;-67
2024/01/07 00:18:57;;;;;;;1.45;1.30;;;2.00;99.90;;;;;;4965331;28;20047;-67
2024/01/07 00:21:24;;;;;;;0.10;0.10;;;2.00;99.90;;;;;;4969952;28;20066;-68
2024/01/07 00:23:49;;;;;;;0.28;0.28;;;2.10;99.90;;;;;;4969080;28;20046;-68
2024/01/07 00:26:15;;;;;;;1.48;0.88;;;2.10;99.90;;;;;;4965358;28;20423;-68
2024/01/07 00:28:40;;;;;;;0.10;0.10;;;2.10;99.90;;;;;;4962792;28;20046;-68
2024/01/07 00:31:08;;;;;;;0.20;0.20;;;2.00;99.90;;;;;;4968266;28;20475;-68
2024/01/07 00:33:34;;;;;;;3.63;1.20;;;2.00;99.90;;;;;;4965528;28;20911;-68
2024/01/07 00:36:01;;;;;;;0.10;0.10;;;2.00;99.90;;;;;;4969322;28;20062;-67
2024/01/07 00:38:26;;;;;;;0.43;0.43;;;2.00;99.90;;;;;;4969605;28;20042;-68
2024/01/07 00:40:52;;;;;;;0.50;0.50;;;2.00;99.90;;;;;;4960923;28;20038;-68
2024/01/07 00:43:18;;;;;;;0.30;0.30;;;1.90;99.90;;;;;;4994090;28;20054;-68
2024/01/07 00:45:44;;;;;;;0.63;0.63;;;2.00;99.90;;;;;;4970151;28;20388;-68
2024/01/07 00:48:09;;;;;;;0.20;0.20;;;2.00;99.90;;;;;;4966328;28;20054;-68
2024/01/07 00:50:35;;;;;;;0.10;0.10;;;2.00;99.90;;;;;;4970675;28;20527;-68
2024/01/07 00:53:00;;;;;;;0.20;0.20;;;2.00;99.90;;;;;;4968877;28;20134;-68
2024/01/07 00:55:26;;;;;;;0.20;0.20;;;2.00;99.90;;;;;;4968876;28;20043;-68
2024/01/07 00:57:51;;;;;;;0.10;0.10;;;2.00;99.90;;;;;;4971652;28;20034;-68
2024/01/07 01:00:18;;;;;;;0.20;0.20;;;2.00;99.90;;;;;;4972291;28;20125;-68
2024/01/07 01:02:43;;;;;;;0.10;0.10;;;2.00;99.90;;;;;;4961822;28;20043;-68
2024/01/07 01:05:09;;;;;;;0.17;0.17;;;2.00;99.90;;;;;;4966392;28;20105;-68
2024/01/07 01:07:34;;;;;;;0.10;0.10;;;2.00;99.90;;;;;;4967074;28;20050;-68
2024/01/07 01:10:00;;;;;;;0.45;0.45;;;2.00;99.90;;;;;;4973010;28;20046;-68
2024/01/07 01:12:25;;;;;;;0.10;0.10;;;2.00;99.90;;;;;;4970133;28;20041;-68
2024/01/07 01:14:51;;;;;;;0.20;0.20;;;2.00;99.90;;;;;;4962582;28;20129;-68
2024/01/07 01:17:17;;;;;;;0.10;0.10;;;1.90;99.90;;;;;;4972188;28;20057;-68
2024/01/07 01:19:42;;;;;;;0.10;0.10;;;1.90;99.90;;;;;;4961958;28;20050;-68
2024/01/07 01:22:08;;;;;;;0.10;0.10;;;2.00;99.90;;;;;;4970745;28;20042;-67
2024/01/07 01:24:33;;;;;;;0.20;0.20;;;2.00;99.90;;;;;;4970156;28;20538;-67
2024/01/07 01:27:00;;;;;;;0.82;0.82;;;2.00;99.90;;;;;;4964676;28;20043;-68
2024/01/07 01:29:25;;;;;;;0.10;0.10;;;2.00;99.90;;;;;;4967866;28;20070;-68
2024/01/07 01:31:51;;;;;;;0.10;0.10;;;1.90;99.90;;;;;;4967221;28;20062;-67
2024/01/07 01:34:16;;;;;;;0.10;0.10;;;1.90;99.90;;;;;;4967981;28;20050;-67
2024/01/07 01:36:42;;;;;;;0.50;0.50;;;1.90;99.90;;;;;;4970710;28;20046;-67
2024/01/07 01:39:07;;;;;;;0.35;0.35;;;1.80;99.90;;;;;;4970891;28;20051;-67
2024/01/07 01:41:33;;;;;;;0.57;0.57;;;1.80;99.90;;;;;;4962507;28;20047;-68
2024/01/07 01:44:00;;;;;;;0.20;0.20;;;1.80;99.90;;;;;;4965672;28;20093;-67
2024/01/07 01:46:26;;;;;;;0.10;0.10;;;1.80;99.90;;;;;;4998474;28;20089;-67
2024/01/07 01:48:52;;;;;;;1.00;1.00;;;1.80;99.90;;;;;;4968924;28;20058;-67
2024/01/07 01:51:18;;;;;;;0.20;0.20;;;1.80;99.90;;;;;;4972445;28;20435;-67
2024/01/07 01:53:45;;;;;;;0.10;0.10;;;1.90;99.90;;;;;;4962865;28;20499;-68
2024/01/07 01:56:11;;;;;;;0.20;0.20;;;1.80;99.90;;;;;;4962344;28;20050;-67
2024/01/07 01:58:36;;;;;;;0.10;0.10;;;1.80;99.90;;;;;;4967072;28;20051;-67
2024/01/07 02:01:03;;;;;;;0.20;0.20;;;1.80;99.90;;;;;;4967214;28;20038;-67
2024/01/07 02:03:29;;;;;;;0.10;0.10;;;1.70;99.90;;;;;;4964456;28;20043;-67
2024/01/07 02:05:56;;;;;;;0.10;0.10;;;1.70;99.90;;;;;;4968701;28;20113;-67
2024/01/07 02:08:22;;;;;;;0.15;0.15;;;1.70;99.90;;;;;;4958587;28;20530;-68
2024/01/07 02:10:47;;;;;;;0.10;0.10;;;1.70;99.90;;;;;;4970348;28;20043;-68
2024/01/07 02:13:13;;;;;;;0.45;0.45;;;1.70;99.90;;;;;;4965575;28;20039;-67
2024/01/07 02:15:39;;;;;;;0.17;0.17;;;1.60;99.90;;;;;;4967544;28;20074;-67
2024/01/07 02:18:04;;;;;;;0.20;0.20;;;1.70;99.90;;;;;;4960620;28;20047;-67
2024/01/07 02:20:30;;;;;;;0.10;0.10;;;1.60;99.90;;;;;;4997649;28;20039;-68
2024/01/07 02:22:58;;;;;;;0.20;0.20;;;1.60;99.90;;;;;;4997578;28;20394;-67
2024/01/07 02:25:24;;;;;;;0.20;0.20;;;1.60;99.90;;;;;;4971094;28;20054;-67
2024/01/07 02:27:50;;;;;;;0.15;0.15;;;1.60;99.90;;;;;;4958268;28;20471;-67
2024/01/07 02:30:17;;;;;;;0.17;0.17;;;1.60;99.90;;;;;;4967124;28;20058;-67
2024/01/07 02:32:42;;;;;;;0.68;0.68;;;1.60;99.90;;;;;;4962682;28;20514;-67
2024/01/07 02:35:08;;;;;;;0.17;0.17;;;1.60;99.90;;;;;;4971261;28;20042;-67
2024/01/07 02:37:34;;;;;;;0.10;0.10;;;1.60;99.90;;;;;;4998892;28;20047;-67
2024/01/07 02:40:00;;;;;;;1.85;1.75;;;1.50;99.90;;;;;;4963742;28;20043;-67
2024/01/07 02:42:25;;;;;;;0.25;0.25;;;1.60;99.90;;;;;;4970858;28;20100;-67
2024/01/07 02:44:51;;;;;;;0.10;0.10;;;1.60;99.90;;;;;;4969850;28;20054;-67
2024/01/07 02:47:16;;;;;;;0.10;0.10;;;1.60;99.90;;;;;;4963618;28;20057;-67
2024/01/07 02:49:42;;;;;;;0.20;0.20;;;1.60;99.90;;;;;;4964573;28;20193;-67
2024/01/07 02:52:07;;;;;;;0.32;0.32;;;1.60;99.90;;;;;;4970243;28;20047;-67
2024/01/07 02:54:33;;;;;;;0.30;0.30;;;1.60;99.90;;;;;;4969705;28;20041;-68
2024/01/07 02:56:58;;;;;;;0.68;0.68;;;1.50;99.90;;;;;;4962509;28;20038;-67
2024/01/07 02:59:24;;;;;;;0.85;0.55;;;1.60;99.90;;;;;;4967803;28;20498;-67
2024/01/07 03:01:49;;;;;;;1.02;0.77;;;1.50;99.90;;;;;;4970234;28;20769;-67
2024/01/07 03:04:16;;;;;;;0.28;0.28;;;1.50;99.90;;;;;;4966975;28;20074;-67
2024/01/07 03:06:42;;;;;;;0.10;0.10;;;1.60;99.90;;;;;;4964396;28;20047;-67
2024/01/07 03:09:07;;;;;;;0.10;0.10;;;1.60;99.90;;;;;;4969953;28;20556;-67
2024/01/07 03:11:33;;;;;;;0.60;0.55;;;1.50;99.90;;;;;;4966408;28;20074;-67
2024/01/07 03:13:59;;;;;;;0.10;0.10;;;1.50;99.90;;;;;;4965378;28;20058;-67
2024/01/07 03:16:25;;;;;;;0.17;0.17;;;1.50;99.90;;;;;;4962715;28;20050;-67
2024/01/07 03:18:51;;;;;;;0.10;0.10;;;1.50;99.90;;;;;;4967996;28;20055;-67
2024/01/07 03:21:22;;;;;;;0.10;0.10;;;1.50;99.90;;;;;;4964526;28;20035;-67
2024/01/07 03:23:49;;;;;;;0.70;0.70;;;1.50;99.90;;;;;;4969594;28;20047;-67
2024/01/07 03:26:15;;;;;;;0.10;0.10;;;1.50;99.90;;;;;;4967957;28;20113;-67
2024/01/07 03:28:41;;;;;;;0.10;0.10;;;1.50;99.90;;;;;;4966179;28;20173;-67
2024/01/07 03:31:13;;;;;;;0.35;0.35;;;1.50;99.90;;;;;;4961444;28;20125;-67
2024/01/07 03:33:40;;;;;;;0.10;0.10;;;1.60;99.90;;;;;;4966784;28;20065;-68
2024/01/07 03:36:08;;;;;;;0.30;0.30;;;1.60;99.90;;;;;;4966644;28;20483;-67
2024/01/07 03:38:33;;;;;;;0.20;0.20;;;1.60;99.90;;;;;;4963504;28;20078;-67
2024/01/07 03:40:59;;;;;;;0.10;0.10;;;1.60;99.90;;;;;;4968555;28;20078;-67
2024/01/07 03:43:24;;;;;;;0.10;0.10;;;1.60;99.90;;;;;;4961291;28;20133;-67
2024/01/07 03:45:50;;;;;;;0.20;0.20;;;1.70;99.90;;;;;;4957680;28;20047;-67
2024/01/07 03:48:16;;;;;;;0.10;0.10;;;1.70;99.90;;;;;;4966723;28;20093;-67
2024/01/07 03:50:41;;;;;;;0.10;0.10;;;1.80;99.90;;;;;;4966600;28;20121;-67
2024/01/07 03:53:07;;;;;;;0.10;0.10;;;1.70;99.90;;;;;;4968986;28;20121;-67
2024/01/07 03:55:32;;;;;;;0.10;0.10;;;1.60;99.90;;;;;;4959517;28;20071;-67
2024/01/07 03:57:58;;;;;;;0.10;0.10;;;1.70;99.90;;;;;;4968382;28;20038;-67
2024/01/07 04:00:23;;;;;;;0.10;0.10;;;1.70;99.90;;;;;;4965074;28;20055;-68
2024/01/07 04:02:49;;;;;;;0.10;0.10;;;1.70;99.90;;;;;;4967118;28;20057;-67
2024/01/07 04:05:15;;;;;;;0.10;0.10;;;1.80;99.90;;;;;;4962311;28;20158;-67
2024/01/07 04:07:40;;;;;;;0.10;0.10;;;1.80;99.90;;;;;;4960296;28;20543;-67
2024/01/07 04:10:06;;;;;;;0.70;0.25;;;1.80;99.90;;;;;;4957359;28;20059;-67
2024/01/07 04:12:32;;;;;;;0.20;0.20;;;1.80;99.90;;;;;;4966452;28;20047;-67
2024/01/07 04:14:57;;;;;;;0.10;0.10;;;1.80;99.90;;;;;;4962271;28;20052;-67
2024/01/07 04:17:23;;;;;;;0.20;0.20;;;1.90;99.90;;;;;;4960875;28;20090;-67
2024/01/07 04:19:49;;;;;;;0.10;0.10;;;1.80;99.90;;;;;;4959653;28;20512;-67
2024/01/07 04:22:15;;;;;;;1.33;0.95;;;1.80;99.90;;;;;;4957875;28;20047;-67
2024/01/07 04:24:41;;;;;;;0.22;0.22;;;1.80;99.90;;;;;;4960551;28;20064;-67
2024/01/07 04:27:07;;;;;;;0.10;0.10;;;1.80;99.90;;;;;;4969064;28;20051;-67
2024/01/07 04:29:32;;;;;;;0.10;0.10;;;1.70;99.90;;;;;;4957024;28;20550;-67
2024/01/07 04:31:58;;;;;;;0.20;0.20;;;1.70;99.90;;;;;;4954423;28;20082;-67
2024/01/07 04:34:24;;;;;;;0.10;0.10;;;1.70;99.90;;;;;;4965543;28;20053;-67
2024/01/07 04:36:50;;;;;;;0.20;0.20;;;1.80;99.90;;;;;;4992533;28;20563;-67
2024/01/07 04:39:15;;;;;;;0.55;0.55;;;1.80;99.90;;;;;;4960656;28;20100;-67
2024/01/07 04:41:41;;;;;;;0.10;0.10;;;1.80;99.90;;;;;;4966066;28;20062;-67
2024/01/07 04:44:06;;;;;;;0.10;0.10;;;1.70;99.90;;;;;;4964112;28;20126;-67
2024/01/07 04:46:38;;;;;;;0.10;0.10;;;1.70;99.90;;;;;;4957656;28;20109;-67
2024/01/07 04:49:05;;;;;;;0.10;0.10;;;1.80;99.90;;;;;;4962294;28;20102;-67
2024/01/07 04:51:31;;;;;;;0.10;0.10;;;1.80;99.90;;;;;;4986273;28;20122;-67
2024/01/07 04:53:56;;;;;;;0.45;0.45;;;1.70;99.90;;;;;;4963489;28;20193;-67
2024/01/07 04:56:22;;;;;;;0.10;0.10;;;1.80;99.90;;;;;;4965625;28;20049;-67
2024/01/07 04:58:48;;;;;;;0.10;0.10;;;1.70;99.90;;;;;;4961689;28;20422;-67
2024/01/07 05:01:14;;;;;;;0.10;0.10;;;1.80;99.90;;;;;;4960704;28;20513;-67
2024/01/07 05:03:39;;;;;;;0.30;0.30;;;1.70;99.90;;;;;;4961445;28;20521;-67
2024/01/07 05:06:05;;;;;;;0.63;0.28;;;1.70;99.90;;;;;;4960289;28;20054;-67
2024/01/07 05:08:31;;;;;;;0.10;0.10;;;1.70;99.90;;;;;;4962151;28;20047;-68
2024/01/07 05:10:56;;;;;;;0.10;0.10;;;1.70;99.90;;;;;;4964007;28;20484;-67
2024/01/07 05:13:22;;;;;;;0.10;0.10;;;1.70;99.90;;;;;;4961294;28;20069;-67
2024/01/07 05:15:53;;;;;;;0.10;0.10;;;1.70;99.90;;;;;;4959796;28;20031;-67
2024/01/07 05:18:21;;;;;;;1.00;0.95;;;1.60;99.90;;;;;;4957282;28;20039;-67
2024/01/07 05:20:47;;;;;;;0.75;0.75;;;1.60;99.90;;;;;;4997698;28;20054;-67
2024/01/07 05:23:12;;;;;;;0.10;0.10;;;1.70;99.90;;;;;;4962616;28;20058;-67
2024/01/07 05:25:38;;;;;;;0.10;0.10;;;1.70;99.90;;;;;;4959187;28;20058;-67
2024/01/07 05:28:04;;;;;;;1.40;1.38;;;1.70;99.90;;;;;;4990415;28;20051;-67
2024/01/07 05:30:29;;;;;;;0.10;0.10;;;1.70;99.90;;;;;;4963825;28;20042;-67
2024/01/07 05:32:55;;;;;;;0.10;0.10;;;1.60;99.90;;;;;;4996786;28;20125;-67
2024/01/07 05:35:20;;;;;;;0.10;0.10;;;1.70;99.90;;;;;;4963954;28;20045;-67
2024/01/07 05:37:46;;;;;;;0.20;0.20;;;1.70;99.90;;;;;;4973114;28;20703;-67
2024/01/07 05:40:12;;;;;;;0.43;0.43;;;1.70;99.90;;;;;;4971556;28;20039;-67
2024/01/07 05:42:37;;;;;;;0.10;0.10;;;1.70;99.90;;;;;;4956667;28;20043;-67
2024/01/07 05:45:03;;;;;;;0.20;0.20;;;1.70;99.90;;;;;;4967836;28;20553;-67
2024/01/07 05:47:29;;;;;;;0.10;0.10;;;1.70;99.90;;;;;;4971293;28;20166;-67
2024/01/07 05:49:55;;;;;;;0.20;0.20;;;1.70;99.90;;;;;;4968539;28;20038;-68
2024/01/07 05:52:21;;;;;;;0.10;0.10;;;1.70;99.90;;;;;;4968181;28;20050;-68
2024/01/07 05:54:46;;;;;;;0.20;0.20;;;1.70;99.90;;;;;;4970192;28;20046;-67
2024/01/07 05:57:12;;;;;;;0.10;0.10;;;1.70;99.90;;;;;;4960482;28;20043;-67
2024/01/07 05:59:38;;;;;;;0.13;0.13;;;1.70;99.90;;;;;;4972471;28;20054;-68
2024/01/07 06:02:04;;;;;;;0.10;0.10;;;1.80;99.90;;;;;;4960849;28;20186;-67
2024/01/07 06:04:29;;;;;;;0.13;0.13;;;1.70;99.90;;;;;;4971805;28;20038;-67
2024/01/07 06:06:55;;;;;;;0.10;0.10;;;1.70;99.90;;;;;;5000839;28;20547;-68
2024/01/07 06:09:20;;;;;;;0.10;0.10;;;1.70;99.90;;;;;;4963973;28;20043;-67
2024/01/07 06:11:46;;;;;;;0.20;0.20;;;1.80;99.90;;;;;;4963978;28;20121;-67
2024/01/07 06:14:12;;;;;;;0.43;0.38;;;1.70;99.90;;;;;;4971085;28;20035;-67
2024/01/07 06:16:37;;;;;;;0.10;0.10;;;1.80;99.90;;;;;;4971096;28;20043;-68
2024/01/07 06:19:03;;;;;;;0.10;0.10;;;1.70;99.90;;;;;;4962474;28;20054;-67
2024/01/07 06:21:29;;;;;;;1.40;1.30;;;1.70;99.90;;;;;;4963291;28;20129;-67
2024/01/07 06:23:55;;;;;;;0.20;0.20;;;1.70;99.90;;;;;;4965651;28;20043;-68
2024/01/07 06:26:20;;;;;;;0.45;0.45;;;1.80;99.90;;;;;;4964120;28;20050;-67
2024/01/07 06:28:46;;;;;;;0.10;0.10;;;1.70;99.90;;;;;;4995800;28;20054;-68
2024/01/07 06:31:11;;;;;;;0.10;0.10;;;1.70;99.90;;;;;;4965629;28;20129;-67
2024/01/07 06:33:37;;;;;;;0.10;0.10;;;1.70;99.90;;;;;;4968382;28;20513;-67
2024/01/07 06:36:02;;;;;;;0.75;0.75;;;1.70;99.90;;;;;;4965741;28;20470;-67
2024/01/07 06:38:28;;;;;;;0.10;0.10;;;1.70;99.90;;;;;;4976040;28;20042;-67
2024/01/07 06:40:55;;;;;;;0.70;0.70;;;1.70;99.90;;;;;;4972203;28;20073;-67
2024/01/07 06:43:20;;;;;;;0.28;0.28;;;1.70;99.90;;;;;;4962255;28;20062;-67
2024/01/07 06:45:46;;;;;;;0.57;0.57;;;1.70;99.90;;;;;;4966044;28;20050;-67
2024/01/07 06:48:12;;;;;;;0.17;0.17;;;1.70;99.90;;;;;;4970704;28;20046;-67
2024/01/07 06:50:37;;;;;;;1.48;1.38;;;1.70;99.90;;;;;;4967826;28;20051;-67
2024/01/07 06:53:03;;;;;;;0.10;0.10;;;1.70;99.90;;;;;;4964636;28;20039;-67
2024/01/07 06:55:29;;;;;;;0.20;0.20;;;1.70;99.90;;;;;;4967817;28;20115;-67
2024/01/07 06:57:54;;;;;;;0.10;0.10;;;1.70;99.90;;;;;;4970316;28;20080;-67
2024/01/07 07:00:20;;;;;;;0.20;0.20;;;1.70;99.90;;;;;;4968643;28;20089;-68
2024/01/07 07:02:46;;;;;;;0.10;0.10;;;1.70;99.90;;;;;;4966022;28;20054;-67
2024/01/07 07:05:11;;;;;;;0.20;0.20;;;1.70;99.90;;;;;;4969855;28;20062;-67
2024/01/07 07:07:37;;;;;;;0.15;0.15;;;1.70;99.90;;;;;;4958349;28;20040;-67
2024/01/07 07:10:03;;;;;;;0.22;0.22;;;1.70;99.90;;;;;;4965948;28;20094;-67
2024/01/07 07:12:29;;;;;;;0.10;0.10;;;1.70;99.90;;;;;;4960012;28;20047;-68
2024/01/07 07:14:54;;;;;;;0.10;0.10;;;1.70;99.90;;;;;;4962045;28;20058;-67
2024/01/07 07:17:20;;;;;;;0.10;0.10;;;1.70;99.90;;;;;;4971522;28;20039;-67
2024/01/07 07:19:46;;;;;;;0.35;0.32;;;1.70;99.90;;;;;;4968155;28;20090;-67
2024/01/07 07:22:11;;;;;;;0.10;0.10;;;1.70;99.90;;;;;;4959626;28;20043;-67
2024/01/07 07:24:41;;;;;;;0.10;0.10;;;1.70;99.90;;;;;;4964322;28;20156;-67
2024/01/07 07:27:06;;;;;;;0.17;0.17;;;1.70;99.90;;;;;;4970932;28;20113;-66
2024/01/07 07:29:32;;;;;;;0.20;0.20;;;1.70;99.90;;;;;;4963811;28;20530;-67
2024/01/07 07:31:57;;;;;;;0.20;0.20;;;1.70;99.90;;;;;;4966525;28;20046;-67
2024/01/07 07:34:23;;;;;;;0.10;0.10;;;1.70;99.90;;;;;;4968974;28;20035;-67
2024/01/07 07:36:48;;;;;;;0.10;0.10;;;1.70;99.90;;;;;;4966963;28;20150;-67
2024/01/07 07:39:14;;;;;;;0.10;0.10;;;1.70;99.90;;;;;;4967397;28;20047;-67
2024/01/07 07:41:40;;;;;;;0.17;0.17;;;1.60;99.90;;;;;;4970278;28;20039;-67
2024/01/07 07:44:06;;;;;;;0.10;0.10;;;1.70;99.90;;;;;;4965161;28;20535;-67
2024/01/07 07:46:31;;;;;;;0.20;0.20;;;1.70;99.90;;;;;;4960748;28;20058;-67
2024/01/07 07:48:57;;;;;;;0.10;0.10;;;1.70;99.90;;;;;;4967445;28;20046;-67
2024/01/07 07:51:23;;;;;;;0.10;0.10;;;1.60;99.90;;;;;;4969708;28;20102;-67
2024/01/07 07:53:49;;;;;;;0.10;0.10;;;1.60;99.90;;;;;;4956473;28;20491;-67
2024/01/07 07:56:14;;;;;;;0.20;0.20;;;1.70;99.90;;;;;;4965489;28;20049;-67
2024/01/07 07:58:40;;;;;;;0.20;0.20;;;1.70;99.90;;;;;;4987017;28;20061;-67
2024/01/07 08:01:06;;;;;;;0.10;0.10;;;1.60;99.90;;;;;;4975026;28;20039;-67
2024/01/07 08:03:32;;;;;;;0.10;0.10;;;1.60;99.90;;;;;;4968954;28;20047;-67
2024/01/07 08:05:58;;;;;;;0.10;0.10;;;1.60;99.90;;;;;;4967813;28;20045;-67
2024/01/07 08:08:23;;;;;;;0.10;0.10;;;1.50;99.90;;;;;;4960575;28;20445;-67
2024/01/07 08:10:49;;;;;;;0.10;0.10;;;1.50;99.90;;;;;;4991988;28;20047;-67
2024/01/07 08:13:14;;;;;;;0.30;0.30;;;1.40;99.90;;;;;;4962313;28;20042;-67
2024/01/07 08:15:40;;;;;;;0.10;0.10;;;1.40;99.90;;;;;;4960830;28;20102;-67
2024/01/07 08:18:05;;;;;;;0.10;0.10;;;1.30;99.90;;;;;;4961853;28;20062;-67
2024/01/07 08:20:31;;;;;;;0.10;0.10;;;1.30;99.90;;;;;;4968078;28;20046;-67
2024/01/07 08:22:57;;;;;;;0.20;0.20;;;1.30;99.90;;;;;;4966832;28;20101;-67
2024/01/07 08:25:23;;;;;;;0.10;0.10;;;1.30;99.90;;;;;;4960138;28;20034;-67
2024/01/07 08:27:49;;;;;;;0.10;0.10;;;1.30;99.90;;;;;;4966270;28;20077;-67
2024/01/07 08:30:14;;;;;;;0.20;0.20;;;1.30;99.90;;;;;;4969430;28;20070;-67
2024/01/07 08:32:40;;;;;;;0.20;0.20;;;1.30;99.90;;;;;;4964260;28;20047;-67
2024/01/07 08:35:07;;;;;;;0.20;0.20;;;1.30;99.90;;;;;;4957994;28;20094;-67
2024/01/07 08:37:32;;;;;;;0.20;0.20;;;1.30;99.90;;;;;;4965709;28;20043;-67
2024/01/07 08:39:59;;;;;;;1.75;1.65;;;1.30;99.90;;;;;;4968862;28;20040;-67
2024/01/07 08:42:25;;;;;;;0.10;0.10;;;1.30;99.90;;;;;;4957191;28;20050;-68
2024/01/07 08:44:50;;;;;;;0.10;0.10;;;1.30;99.90;;;;;;4968861;28;20113;-67
2024/01/07 08:47:16;;;;;;;0.20;0.20;;;1.40;99.90;;;;;;4967726;28;20051;-67
2024/01/07 08:49:41;;;;;;;0.20;0.20;;;1.40;99.90;;;;;;4962526;28;20083;-67
2024/01/07 08:52:07;;;;;;;3.85;0.85;;;1.40;99.90;;;;;;4967973;28;20035;-67
2024/01/07 08:54:33;;;;;;;0.30;0.30;;;1.40;99.90;;;;;;4964305;28;20039;-68
2024/01/07 08:56:58;;;;;;;0.10;0.10;;;1.50;99.90;;;;;;4963146;28;20047;-67
2024/01/07 08:59:24;;;;;;;0.20;0.20;;;1.50;99.90;;;;;;4993729;28;20063;-67
2024/01/07 09:01:50;;;;;;;0.15;0.15;;;1.50;99.90;;;;;;4987578;28;20487;-67
2024/01/07 09:04:17;;;;;;;0.10;0.10;;;1.50;99.90;;;;;;4959730;28;20047;-67
2024/01/07 09:06:46;;;;;;;0.10;0.10;;;1.50;99.90;;;;;;4968889;28;20058;-67
2024/01/07 09:09:11;;;;;;;0.10;0.10;;;1.60;99.90;;;;;;4961489;28;20530;-67
2024/01/07 09:11:37;;;;;;;0.10;0.10;;;1.60;99.90;;;;;;4967102;28;20131;-67
2024/01/07 09:14:06;;;;;;;0.20;0.20;;;1.60;99.90;;;;;;4972849;28;20086;-67
2024/01/07 09:16:31;;;;;;;0.10;0.10;;;1.60;99.90;;;;;;4956277;28;20039;-67
2024/01/07 09:18:57;;;;;;;0.15;0.15;;;1.60;99.90;;;;;;4968732;28;20652;-67
2024/01/07 09:21:23;;;;;;;0.35;0.35;;;1.60;99.90;;;;;;4961330;28;20502;-67
2024/01/07 09:23:48;;;;;;;0.20;0.20;;;1.60;99.90;;;;;;4964156;28;20098;-67
2024/01/07 09:26:14;;;;;;;0.28;0.28;;;1.70;99.90;;;;;;4968508;28;20486;-67
2024/01/07 09:28:40;;;;;;;4.60;1.00;;;1.70;99.90;;;;;;4965912;28;20062;-68
2024/01/07 09:31:06;;;;;;;0.10;0.10;;;1.70;99.90;;;;;;4964653;28;20059;-67
2024/01/07 09:33:31;;;;;;;0.20;0.20;;;1.70;99.90;;;;;;4972720;28;20038;-67
2024/01/07 09:35:57;;;;;;;0.20;0.20;;;1.70;99.90;;;;;;4968406;28;20070;-67
2024/01/07 09:38:24;;;;;;;0.13;0.13;;;1.70;99.90;;;;;;4970332;28;20045;-68
2024/01/07 09:40:50;;;;;;;0.10;0.10;;;1.70;99.90;;;;;;4964848;28;20081;-67
2024/01/07 09:43:16;;;;;;;0.10;0.10;;;1.70;99.90;;;;;;4969488;28;20094;-69
2024/01/07 09:45:45;;;;;;;0.20;0.20;;;1.70;99.90;;;;;;4971659;28;20039;-67
2024/01/07 09:48:11;;;;;;;0.20;0.20;;;1.70;99.90;;;;;;4962095;28;20057;-67
2024/01/07 09:50:37;;;;;;;0.10;0.10;;;1.80;99.90;;;;;;4971270;28;20051;-68
2024/01/07 09:53:03;;;;;;;1.17;0.57;;;1.80;99.90;;;;;;4972670;28;20046;-67
2024/01/07 09:56:01;;;;;;;0.25;0.25;;;1.80;99.90;;;;;;4966655;28;20047;-68
2024/01/07 09:58:27;;;;;;;0.13;0.13;;;1.90;99.90;;;;;;4961011;28;20134;-67
2024/01/07 10:00:54;;;;;;;0.35;0.35;;;1.90;99.90;;;;;;4970285;28;20093;-67
2024/01/07 10:03:19;;;;;;;0.38;0.38;;;1.90;99.90;;;;;;4961390;28;20043;-67
2024/01/07 10:05:45;;;;;;;0.20;0.20;;;1.90;99.90;;;;;;4971496;28;20047;-67
2024/01/07 10:08:10;;;;;;;0.20;0.20;;;1.90;99.90;;;;;;4961745;28;20069;-67
2024/01/07 10:10:37;;;;;;;0.13;0.13;;;1.90;99.90;;;;;;4965185;28;20435;-67
2024/01/07 10:13:02;;;;;;;0.10;0.10;;;1.90;99.90;;;;;;4968026;28;20136;-67
2024/01/07 10:15:28;;;;;;;0.10;0.10;;;1.90;99.90;;;;;;4957918;28;20135;-67
2024/01/07 10:18:05;;;;;;;0.35;0.35;;;2.00;99.90;;;;;;4989559;28;20500;-66
2024/01/07 10:20:32;;;;;;;0.10;0.10;;;2.00;99.90;;;;;;4964463;28;20117;-66
2024/01/07 10:22:58;;;;;;;0.20;0.20;;;2.00;99.90;;;;;;4958663;28;20035;-66
2024/01/07 10:25:23;;;;;;;0.10;0.10;;;2.00;99.90;;;;;;4967865;28;20518;-66
2024/01/07 10:27:49;;;;;;;0.10;0.10;;;2.00;99.90;;;;;;4962760;28;20089;-66
2024/01/07 10:30:16;;;;;;;0.10;0.10;;;2.00;99.90;;;;;;4965035;28;20054;-66
2024/01/07 10:32:42;;;;;;;0.10;0.10;;;2.10;99.90;;;;;;4958637;28;20506;-66
2024/01/07 10:35:16;;;;;;;0.10;0.10;;;2.10;99.90;;;;;;4962953;28;20074;-67
2024/01/07 10:37:42;;;;;;;0.10;0.10;;;2.10;99.90;;;;;;4970419;28;20490;-67
2024/01/07 10:40:11;;;;;;;0.10;0.10;;;2.20;99.90;;;;;;4969050;28;20047;-66
2024/01/07 10:42:39;;;;;;;0.20;0.20;;;2.20;99.90;;;;;;4959880;28;20078;-67
2024/01/07 10:45:05;;;;;;;0.20;0.20;;;2.20;99.90;;;;;;4962479;28;20454;-67
2024/01/07 10:47:31;;;;;;;0.13;0.13;;;2.20;99.90;;;;;;4962665;28;20043;-67
2024/01/07 10:49:58;;;;;;;0.30;0.30;;;2.30;99.90;;;;;;4968807;28;20537;-67
2024/01/07 10:52:27;;;;;;;0.20;0.20;;;2.30;99.90;;;;;;4963026;28;20093;-67
2024/01/07 10:54:56;;;;;;;0.20;0.20;;;2.40;99.90;;;;;;4957861;28;20434;-66
2024/01/07 10:57:49;;;;;;;0.10;0.10;;;2.50;99.90;;;;;;4973406;28;20198;-66
2024/01/07 11:00:18;;;;;;;0.15;0.15;;;2.50;99.90;;;;;;4957989;28;20377;-67
2024/01/07 11:03:11;;;;;;;0.20;0.20;;;2.50;99.90;;;;;;4965609;28;20137;-67
2024/01/07 11:05:44;;;;;;;0.10;0.10;;;2.60;99.90;;;;;;4966113;28;20074;-68
2024/01/07 11:08:28;;;;;;;;;;;2.70;99.90;;;;;;4971350;28;20050;-68
2024/01/07 11:10:59;;;;;;;0.10;0.10;;;2.70;99.90;;;;;;4965537;28;19937;-68
2024/01/07 11:13:38;;;;;;;0.55;0.55;;;2.70;99.90;;;;;;4967275;28;20506;-68
2024/01/07 11:16:10;;;;;;;0.10;0.10;;;2.80;99.90;;;;;;4967342;28;20049;-68
2024/01/07 11:18:52;;;;;;;0.10;0.10;;;2.80;99.90;;;;;;4963895;28;20569;-68
2024/01/07 11:21:22;;;;;;;0.10;0.10;;;2.80;99.90;;;;;;4966684;28;20085;-68
2024/01/07 11:23:47;;;;;;;0.20;0.20;;;2.70;99.90;;;;;;4967244;28;20038;-68
2024/01/07 11:26:13;;;;;;;0.10;0.10;;;2.70;99.90;;;;;;4969079;28;20042;-68
2024/01/07 11:28:51;;;;;;;0.40;0.40;;;2.70;99.90;;;;;;4964672;28;20137;-68
2024/01/07 11:31:22;;;;;;;0.10;0.10;;;2.70;99.90;;;;;;4969404;28;20089;-68
2024/01/07 11:33:50;;;;;;;0.20;0.20;;;2.70;99.90;;;;;;4963984;28;20138;-68
2024/01/07 11:36:17;;;;;;;0.10;0.10;;;2.80;99.90;;;;;;4963753;28;20049;-68
2024/01/07 11:38:50;;;;;;;0.10;0.10;;;2.70;99.90;;;;;;4975483;28;20713;-68
2024/01/07 11:41:17;;;;;;;0.10;0.10;;;2.70;99.90;;;;;;4963947;28;20046;-68
2024/01/07 11:43:58;;;;;;;0.20;0.20;;;2.70;99.90;;;;;;4958605;28;20054;-68
2024/01/07 11:46:24;;;;;;;0.10;0.10;;;2.80;99.90;;;;;;4970332;28;20451;-68
2024/01/07 11:48:53;;;;;;;0.10;0.10;;;2.90;99.90;;;;;;4963747;28;20082;-68
2024/01/07 11:51:19;;;;;;;0.10;0.10;;;3.10;99.90;;;;;;4965594;28;20039;-68
2024/01/07 11:53:48;;;;;;;0.30;0.30;;;3.20;99.90;;;;;;4970189;28;20047;-69
2024/01/07 11:56:13;;;;;;;0.43;0.40;;;3.40;99.90;;;;;;4966163;28;20046;-69
2024/01/07 11:58:41;;;;;;;0.57;0.57;;;3.40;99.90;;;;;;4985871;28;20043;-69
2024/01/07 12:01:07;;;;;;;0.10;0.10;;;3.60;99.90;;;;;;4994665;28;20118;-67
2024/01/07 12:03:33;;;;;;;0.10;0.10;;;3.80;99.90;;;;;;4954973;28;20186;-67
2024/01/07 12:05:59;;;;;;;0.20;0.20;;;4.00;99.90;;;;;;4961929;28;20160;-67
2024/01/07 12:08:25;;;;;;;0.20;0.20;;;4.10;99.90;;;;;;4962178;28;20697;-67
2024/01/07 12:10:51;;;;;;;0.82;0.82;;;4.30;99.90;;;;;;4958946;28;20047;-67
2024/01/07 12:13:17;;;;;;;0.10;0.10;;;4.40;99.90;;;;;;4964576;28;20071;-67
2024/01/07 12:15:43;;;;;;;0.20;0.20;;;4.50;99.90;;;;;;4970927;28;20117;-67
2024/01/07 12:18:09;;;;;;;0.30;0.30;;;4.60;99.90;;;;;;4965505;28;20444;-67
2024/01/07 12:20:35;;;;;;;0.10;0.10;;;4.80;99.90;;;;;;4959363;28;20051;-67
2024/01/07 12:23:07;;;;;;;0.10;0.10;;;4.90;99.90;;;;;;4966441;28;20042;-68
2024/01/07 12:25:33;;;;;;;0.20;0.20;;;4.90;99.90;;;;;;4957682;28;20169;-67
2024/01/07 12:27:59;;;;;;;0.10;0.10;;;5.00;99.90;;;;;;4983862;28;20126;-67
2024/01/07 12:30:25;;;;;;;0.10;0.10;;;5.00;99.90;;;;;;5000035;28;20142;-67
2024/01/07 12:32:54;;;;;;;3.10;1.98;;;4.90;99.90;;;;;;4958077;28;20407;-67
2024/01/07 12:35:20;;;;;;;0.10;0.10;;;4.70;99.90;;;;;;4956119;28;20051;-67
2024/01/07 12:37:48;;;;;;;0.57;0.57;;;4.70;99.90;;;;;;4968387;28;20049;-67
2024/01/07 12:40:13;;;;;;;0.15;0.15;;;4.50;99.90;;;;;;4967202;28;20082;-67
2024/01/07 12:42:44;;;;;;;3.72;1.75;;;4.30;99.90;;;;;;4961278;28;20137;-67
2024/01/07 12:45:13;;;;;;;0.38;0.38;;;4.30;99.90;;;;;;5001530;28;20055;-67
2024/01/07 12:47:43;;;;;;;0.38;0.38;;;4.50;99.90;;;;;;4962618;28;20051;-67
2024/01/07 12:50:11;;;;;;;0.10;0.10;;;4.50;99.90;;;;;;4960332;28;20125;-67
2024/01/07 12:52:40;;;;;;;0.10;0.10;;;4.60;99.90;;;;;;4967198;28;20511;-68
2024/01/07 12:55:07;;;;;;;0.10;0.10;;;4.60;99.90;;;;;;4963253;28;20055;-68